Time;durP1;ratioP1;P1;durP2;ratioP2;P2;SDS_P1;SDS_P2;PMS_P1;PMS_P2;Temp;Humidity;BMP_temperature;BMP_pressure;BME280_temperature;BME280_humidity;BME280_pressure;Samples;Min_cycle;Max_cycle;Signal;HPM_P1;HPM_P2
2023/05/17 00:01:51;;;;;;;17.83;7.13;;;;;;;8.92;100.00;102359.41;4967966;28;20039;-74
2023/05/17 00:04:17;;;;;;;25.73;7.65;;;;;;;8.86;100.00;102354.28;4984215;28;20222;-74
2023/05/17 00:06:43;;;;;;;28.17;8.35;;;;;;;8.97;100.00;102358.34;4980565;28;20027;-74
2023/05/17 00:09:09;;;;;;;28.35;7.90;;;;;;;8.89;100.00;102344.44;4964121;28;20095;-75
2023/05/17 00:11:35;;;;;;;28.23;9.05;;;;;;;8.92;100.00;102356.75;4971887;28;20105;-74
2023/05/17 00:14:01;;;;;;;25.13;7.90;;;;;;;8.79;100.00;102345.66;4974585;28;21002;-75
2023/05/17 00:16:26;;;;;;;25.70;7.93;;;;;;;8.87;100.00;102359.56;4982259;28;20103;-74
2023/05/17 00:18:52;;;;;;;23.65;7.82;;;;;;;8.90;100.00;102354.16;4965168;28;20323;-75
2023/05/17 00:21:18;;;;;;;29.42;8.23;;;;;;;8.78;100.00;102358.03;4978299;28;20046;-76
2023/05/17 00:23:43;;;;;;;25.00;7.32;;;;;;;8.88;100.00;102349.78;4987356;28;20123;-74
2023/05/17 00:26:09;;;;;;;21.38;7.28;;;;;;;8.79;100.00;102354.50;4968617;28;20039;-75
2023/05/17 00:28:35;;;;;;;32.72;8.85;;;;;;;8.84;100.00;102353.47;4962940;28;20063;-74
2023/05/17 00:31:00;;;;;;;20.13;7.63;;;;;;;8.89;100.00;102359.53;4968898;28;20042;-75
2023/05/17 00:33:28;;;;;;;19.35;7.47;;;;;;;8.80;100.00;102345.59;4966761;28;20039;-75
2023/05/17 00:35:53;;;;;;;27.67;7.57;;;;;;;8.84;100.00;102351.69;4976104;28;20039;-75
2023/05/17 00:38:19;;;;;;;27.92;8.90;;;;;;;8.74;100.00;102358.22;4981658;28;20054;-75
2023/05/17 00:40:45;;;;;;;19.98;7.35;;;;;;;8.77;100.00;102348.34;4973447;28;20039;-75
2023/05/17 00:43:10;;;;;;;29.63;7.82;;;;;;;8.76;100.00;102349.25;4968504;28;20038;-74
2023/05/17 00:45:36;;;;;;;31.30;8.20;;;;;;;8.75;100.00;102357.28;4983491;28;20035;-75
2023/05/17 00:48:01;;;;;;;26.27;8.30;;;;;;;8.73;100.00;102351.13;4968218;28;20775;-75
2023/05/17 00:50:27;;;;;;;29.08;8.77;;;;;;;8.66;100.00;102346.94;4971660;28;20075;-74
2023/05/17 00:52:53;;;;;;;27.30;8.13;;;;;;;8.69;100.00;102349.50;4969368;28;21116;-75
2023/05/17 00:55:19;;;;;;;38.30;9.10;;;;;;;8.68;100.00;102358.38;4961196;28;21152;-74
2023/05/17 00:57:45;;;;;;;30.40;9.05;;;;;;;8.70;100.00;102353.91;4967768;28;20117;-74
2023/05/17 01:00:14;;;;;;;30.52;8.52;;;;;;;8.72;100.00;102352.06;4963102;28;20137;-75
2023/05/17 01:02:39;;;;;;;23.80;8.73;;;;;;;8.60;100.00;102344.47;4962408;28;20121;-74
2023/05/17 01:05:07;;;;;;;26.58;9.15;;;;;;;8.62;100.00;102350.59;4972661;28;20041;-74
2023/05/17 01:07:34;;;;;;;30.48;9.07;;;;;;;8.65;100.00;102345.19;4960863;28;21471;-74
2023/05/17 01:10:00;;;;;;;26.48;9.05;;;;;;;8.58;100.00;102347.16;4965354;28;20038;-73
2023/05/17 01:12:31;;;;;;;34.60;9.40;;;;;;;8.66;100.00;102345.16;4983199;28;20058;-75
2023/05/17 01:15:17;;;;;;;35.28;8.80;;;;;;;8.62;100.00;102346.16;4967485;28;20035;-74
2023/05/17 01:17:53;;;;;;;27.70;8.77;;;;;;;8.64;100.00;102343.47;4960522;28;21422;-75
2023/05/17 01:20:26;;;;;;;24.13;8.52;;;;;;;8.61;100.00;102341.75;4963769;28;20038;-75
2023/05/17 01:23:22;;;;;;;34.97;9.43;;;;;;;8.60;100.00;102349.78;4969110;28;20043;-74
2023/05/17 01:25:48;;;;;;;24.58;7.70;;;;;;;8.52;100.00;102340.25;4965933;28;20038;-75
2023/05/17 01:28:16;;;;;;;23.95;8.45;;;;;;;8.52;100.00;102342.91;4970474;28;20042;-74
2023/05/17 01:30:44;;;;;;;31.08;9.70;;;;;;;8.47;100.00;102344.84;4965402;28;20038;-75
2023/05/17 01:33:11;;;;;;;31.50;8.55;;;;;;;8.53;100.00;102344.66;4977344;28;20035;-74
2023/05/17 01:35:36;;;;;;;31.35;8.25;;;;;;;8.41;100.00;102345.03;4966088;28;20047;-74
2023/05/17 01:38:02;;;;;;;35.08;8.88;;;;;;;8.46;100.00;102342.22;4985936;28;20575;-74
2023/05/17 01:40:34;;;;;;;30.48;10.48;;;;;;;8.47;100.00;102347.50;4987743;28;20308;-75
2023/05/17 01:43:16;;;;;;;39.13;8.32;;;;;;;8.45;100.00;102344.03;4964468;28;20883;-74
2023/05/17 01:46:10;;;;;;;31.88;10.38;;;;;;;8.46;100.00;102342.22;4963481;28;20043;-74
2023/05/17 01:48:44;;;;;;;26.92;8.30;;;;;;;8.51;100.00;102353.59;4961837;28;20031;-75
2023/05/17 01:51:17;;;;;;;21.85;8.63;;;;;;;8.48;100.00;102340.38;4970150;28;20091;-74
2023/05/17 01:53:48;;;;;;;34.13;9.25;;;;;;;8.53;100.00;102347.34;4968508;28;20039;-75
2023/05/17 01:56:25;;;;;;;32.03;8.57;;;;;;;8.53;100.00;102346.44;4965175;28;20110;-75
2023/05/17 01:58:52;;;;;;;29.08;8.57;;;;;;;8.77;100.00;102352.78;4980769;28;20086;-73
2023/05/17 02:01:19;;;;;;;32.38;9.90;;;;;;;8.82;100.00;102349.06;4968718;28;20043;-74
2023/05/17 02:03:48;;;;;;;23.67;7.88;;;;;;;8.81;100.00;102354.44;4995325;28;20059;-75
2023/05/17 02:06:13;;;;;;;29.67;9.07;;;;;;;8.96;100.00;102351.28;4995946;28;20031;-74
2023/05/17 02:08:40;;;;;;;33.58;9.55;;;;;;;8.99;100.00;102353.84;4969889;28;20043;-74
2023/05/17 02:11:05;;;;;;;22.60;7.97;;;;;;;9.02;100.00;102351.06;4979902;28;20040;-74
2023/05/17 02:13:31;;;;;;;33.50;9.40;;;;;;;8.98;100.00;102357.41;4980917;28;20050;-74
2023/05/17 02:16:00;;;;;;;31.58;9.73;;;;;;;9.12;100.00;102358.75;4980917;28;20035;-73
2023/05/17 02:18:26;;;;;;;37.63;10.55;;;;;;;9.19;100.00;102349.69;4975530;28;20047;-75
2023/05/17 02:20:52;;;;;;;29.10;9.60;;;;;;;9.14;100.00;102356.94;4992617;28;20041;-74
2023/05/17 02:23:18;;;;;;;31.90;9.50;;;;;;;9.15;100.00;102350.69;4991506;28;20043;-74
2023/05/17 02:25:44;;;;;;;37.47;10.07;;;;;;;9.17;100.00;102356.81;4972739;28;20031;-72
2023/05/17 02:28:10;;;;;;;40.67;9.30;;;;;;;9.24;100.00;102353.91;4983362;28;20110;-74
2023/05/17 02:30:39;;;;;;;35.42;9.55;;;;;;;9.22;100.00;102353.06;4967354;28;20043;-74
2023/05/17 02:33:05;;;;;;;32.53;9.80;;;;;;;9.24;100.00;102361.91;4970597;28;20082;-74
2023/05/17 02:35:31;;;;;;;30.58;9.38;;;;;;;9.34;100.00;102365.13;4988091;28;20042;-74
2023/05/17 02:37:57;;;;;;;31.45;10.60;;;;;;;9.38;100.00;102364.06;4965635;28;20054;-73
2023/05/17 02:40:22;;;;;;;36.95;9.10;;;;;;;9.27;100.00;102375.09;4967302;28;20031;-73
2023/05/17 02:42:48;;;;;;;30.23;9.35;;;;;;;9.32;100.00;102369.63;4969322;28;20489;-75
2023/05/17 02:45:13;;;;;;;31.17;9.65;;;;;;;9.33;100.00;102369.56;4978445;28;20051;-75
2023/05/17 02:47:39;;;;;;;33.78;9.60;;;;;;;9.30;100.00;102376.78;4965031;28;20055;-75
2023/05/17 02:50:06;;;;;;;32.05;10.18;;;;;;;9.36;100.00;102373.91;4975819;28;20047;-76
2023/05/17 02:52:33;;;;;;;30.98;10.57;;;;;;;9.17;100.00;102381.63;4970032;28;20134;-76
2023/05/17 02:54:59;;;;;;;38.47;10.45;;;;;;;9.11;100.00;102384.50;4980135;28;20134;-74
2023/05/17 02:57:25;;;;;;;45.47;11.52;;;;;;;9.14;100.00;102391.53;4975907;28;20043;-75
2023/05/17 02:59:50;;;;;;;38.40;9.57;;;;;;;8.91;100.00;102381.63;4975991;28;20440;-75
2023/05/17 03:02:16;;;;;;;30.42;9.82;;;;;;;9.07;100.00;102391.72;4964881;28;20090;-75
2023/05/17 03:04:41;;;;;;;31.13;9.32;;;;;;;8.99;100.00;102393.75;4968120;28;20042;-74
2023/05/17 03:07:07;;;;;;;38.67;9.90;;;;;;;8.97;100.00;102397.38;4966600;28;20822;-76
2023/05/17 03:09:35;;;;;;;31.13;10.73;;;;;;;8.96;100.00;102409.81;4988471;28;20069;-74
2023/05/17 03:12:02;;;;;;;26.67;9.32;;;;;;;8.90;100.00;102404.69;4963690;28;20042;-76
2023/05/17 03:14:31;;;;;;;31.92;9.15;;;;;;;8.85;100.00;102408.41;4976840;28;20057;-75
2023/05/17 03:16:56;;;;;;;35.88;9.82;;;;;;;8.85;100.00;102411.06;4984981;28;20050;-75
2023/05/17 03:19:22;;;;;;;37.67;9.95;;;;;;;8.86;100.00;102419.00;4976196;28;20776;-75
2023/05/17 03:21:48;;;;;;;34.35;9.02;;;;;;;8.78;100.00;102413.91;4971437;28;20042;-75
2023/05/17 03:24:14;;;;;;;31.58;10.23;;;;;;;8.79;100.00;102422.78;4974487;28;20750;-75
2023/05/17 03:26:40;;;;;;;36.75;10.07;;;;;;;8.88;100.00;102425.13;4980327;28;20179;-76
2023/05/17 03:29:08;;;;;;;33.08;10.20;;;;;;;8.97;100.00;102423.97;4965190;28;20037;-75
2023/05/17 03:31:33;;;;;;;31.48;10.52;;;;;;;8.97;100.00;102426.66;4973095;28;20050;-74
2023/05/17 03:33:59;;;;;;;35.22;9.30;;;;;;;9.04;100.00;102428.22;4985518;28;21038;-76
2023/05/17 03:36:25;;;;;;;33.33;10.07;;;;;;;9.10;100.00;102428.00;4971169;28;20594;-76
2023/05/17 03:38:50;;;;;;;35.75;10.75;;;;;;;9.19;100.00;102426.84;4978132;28;20500;-75
2023/05/17 03:41:16;;;;;;;26.90;9.73;;;;;;;9.26;100.00;102436.38;4971562;28;20038;-74
2023/05/17 03:43:42;;;;;;;31.58;9.50;;;;;;;9.28;100.00;102443.38;4962963;28;20052;-76
2023/05/17 03:46:10;;;;;;;26.13;10.95;;;;;;;9.31;100.00;102437.09;4970362;28;20023;-75
2023/05/17 03:48:36;;;;;;;39.58;11.00;;;;;;;9.37;100.00;102438.69;4965235;28;20070;-75
2023/05/17 03:51:03;;;;;;;28.67;9.65;;;;;;;9.33;100.00;102444.09;4975529;28;20061;-75
2023/05/17 03:53:28;;;;;;;28.00;10.10;;;;;;;9.33;100.00;102443.22;4974415;28;20039;-74
2023/05/17 03:55:54;;;;;;;30.23;10.27;;;;;;;9.45;100.00;102440.19;4969357;28;20348;-76
2023/05/17 03:58:20;;;;;;;22.00;9.52;;;;;;;9.65;100.00;102447.50;4969165;28;20960;-74
2023/05/17 04:00:45;;;;;;;36.67;10.52;;;;;;;9.91;100.00;102443.94;4980183;28;20915;-76
2023/05/17 04:03:15;;;;;;;28.05;11.00;;;;;;;10.08;100.00;102446.88;4959843;28;20035;-75
2023/05/17 04:05:41;;;;;;;30.27;9.32;;;;;;;10.32;100.00;102446.97;4969285;28;20046;-75
2023/05/17 04:08:07;;;;;;;34.30;9.55;;;;;;;10.39;100.00;102440.47;4960507;28;20042;-75
2023/05/17 04:10:33;;;;;;;28.63;10.50;;;;;;;10.55;100.00;102438.13;4967031;28;20066;-75
2023/05/17 04:12:58;;;;;;;31.50;9.38;;;;;;;10.72;100.00;102440.13;4955505;28;21221;-75
2023/05/17 04:15:24;;;;;;;27.98;9.32;;;;;;;10.91;100.00;102438.50;4971829;28;20050;-75
2023/05/17 04:17:50;;;;;;;29.60;8.48;;;;;;;11.22;100.00;102437.28;4987464;28;20963;-75
2023/05/17 04:20:15;;;;;;;36.17;9.90;;;;;;;11.49;100.00;102444.16;4979632;28;20094;-75
2023/05/17 04:22:41;;;;;;;25.50;9.13;;;;;;;12.00;100.00;102439.34;4978260;28;20063;-75
2023/05/17 04:25:10;;;;;;;24.02;9.13;;;;;;;12.44;100.00;102440.03;4981175;28;20034;-75
2023/05/17 04:27:36;;;;;;;30.77;8.90;;;;;;;13.05;100.00;102441.66;4965674;28;20039;-73
2023/05/17 04:30:05;;;;;;;32.28;9.48;;;;;;;13.79;100.00;102447.81;4984773;28;20059;-76
2023/05/17 04:32:32;;;;;;;24.42;7.95;;;;;;;14.25;100.00;102442.75;4985558;28;20042;-74
2023/05/17 04:34:59;;;;;;;25.08;8.32;;;;;;;14.81;100.00;102444.22;4986101;28;20042;-75
2023/05/17 04:37:25;;;;;;;26.23;7.28;;;;;;;15.33;95.95;102446.63;4970362;28;20046;-75
2023/05/17 04:39:55;;;;;;;23.90;7.35;;;;;;;16.00;92.26;102448.03;4972618;28;20043;-74
2023/05/17 04:42:20;;;;;;;29.65;7.75;;;;;;;15.92;87.60;102444.97;4984597;28;20196;-75
2023/05/17 04:44:51;;;;;;;22.33;7.30;;;;;;;15.33;90.12;102457.38;4973136;28;20134;-75
2023/05/17 04:47:18;;;;;;;25.85;7.72;;;;;;;15.52;90.94;102458.06;4980882;28;20046;-74
2023/05/17 04:49:43;;;;;;;29.13;8.40;;;;;;;16.50;86.83;102457.53;4970500;28;20035;-74
2023/05/17 04:52:09;;;;;;;24.15;7.90;;;;;;;17.37;82.28;102460.97;4968679;28;22011;-75
2023/05/17 04:54:35;;;;;;;25.55;8.50;;;;;;;17.77;77.54;102462.78;4987406;28;20039;-75
2023/05/17 04:57:02;;;;;;;23.00;7.63;;;;;;;17.60;76.20;102468.41;4971858;28;20117;-75
2023/05/17 04:59:51;;;;;;;21.88;7.13;;;;;;;17.64;75.19;102469.94;4978972;28;20165;-75
2023/05/17 05:02:16;;;;;;;29.38;7.90;;;;;;;18.63;73.02;102460.34;4959131;28;20032;-75
2023/05/17 05:04:42;;;;;;;23.80;7.15;;;;;;;19.12;68.55;102459.50;4980223;28;20138;-76
2023/05/17 05:07:10;;;;;;;30.52;7.13;;;;;;;19.52;65.55;102463.78;4980712;28;20146;-75
2023/05/17 05:09:36;;;;;;;23.40;7.35;;;;;;;19.78;63.50;102467.25;4955450;28;20137;-74
2023/05/17 05:12:03;;;;;;;19.08;6.25;;;;;;;19.80;61.42;102468.03;4981557;28;20031;-74
2023/05/17 05:14:30;;;;;;;17.80;6.68;;;;;;;20.12;61.46;102471.78;4976571;28;20038;-74
2023/05/17 05:16:55;;;;;;;22.60;5.63;;;;;;;20.29;59.75;102473.19;4980605;28;20035;-75
2023/05/17 05:19:21;;;;;;;21.77;6.20;;;;;;;20.34;60.05;102467.44;4971571;28;20030;-74
2023/05/17 05:21:49;;;;;;;20.30;5.93;;;;;;;20.45;59.04;102478.28;4973526;28;20039;-73
2023/05/17 05:24:14;;;;;;;20.48;5.40;;;;;;;20.69;58.79;102478.22;4987736;28;20039;-73
2023/05/17 05:26:41;;;;;;;23.85;6.90;;;;;;;20.68;58.39;102488.19;4971282;28;20035;-74
2023/05/17 05:29:07;;;;;;;24.55;6.43;;;;;;;20.54;58.05;102495.69;4981918;28;20907;-73
2023/05/17 05:31:33;;;;;;;14.57;5.80;;;;;;;20.28;57.38;102493.16;4985192;28;20039;-74
2023/05/17 05:34:00;;;;;;;14.35;5.50;;;;;;;20.24;57.86;102501.66;4983803;28;20100;-74
2023/05/17 05:36:26;;;;;;;21.80;6.20;;;;;;;20.40;58.10;102497.59;4978336;28;20181;-75
2023/05/17 05:38:53;;;;;;;18.67;6.60;;;;;;;20.48;58.82;102502.44;4965054;28;20483;-72
2023/05/17 05:41:19;;;;;;;18.77;6.20;;;;;;;20.43;57.44;102499.19;4984920;28;20042;-75
2023/05/17 05:43:45;;;;;;;20.15;6.32;;;;;;;19.96;58.18;102500.19;4951481;28;20607;-74
2023/05/17 05:46:12;;;;;;;22.77;5.93;;;;;;;19.07;57.73;102523.03;4972896;28;20039;-75
2023/05/17 05:48:40;;;;;;;17.88;5.80;;;;;;;18.23;59.86;102524.44;4985921;28;20050;-73
2023/05/17 05:51:07;;;;;;;17.10;5.50;;;;;;;17.29;61.70;102531.59;4963569;28;20101;-75
2023/05/17 05:53:33;;;;;;;23.55;6.07;;;;;;;16.77;65.37;102541.19;4985326;28;20035;-70
2023/05/17 05:55:59;;;;;;;18.73;5.30;;;;;;;16.47;69.17;102549.28;4970976;28;20035;-73
2023/05/17 05:58:24;;;;;;;22.92;5.05;;;;;;;16.03;68.96;102547.44;4985478;28;20050;-75
2023/05/17 06:00:50;;;;;;;21.67;5.70;;;;;;;16.09;69.81;102545.34;4985692;28;20035;-75
2023/05/17 06:03:16;;;;;;;30.48;5.20;;;;;;;15.80;69.32;102558.66;4960749;28;20043;-75
2023/05/17 06:05:42;;;;;;;22.13;5.70;;;;;;;15.33;70.30;102559.53;4968407;28;20539;-75
2023/05/17 06:08:08;;;;;;;25.50;5.28;;;;;;;15.55;71.71;102562.72;4973253;28;20575;-75
2023/05/17 06:10:34;;;;;;;29.58;5.32;;;;;;;15.23;70.68;102563.69;4972650;28;20042;-75
2023/05/17 06:12:59;;;;;;;15.70;4.63;;;;;;;14.44;73.79;102572.34;4969551;28;20418;-75
2023/05/17 06:15:26;;;;;;;21.50;5.63;;;;;;;14.94;nan;102574.19;4975784;28;20942;-75
2023/05/17 06:17:52;;;;;;;27.38;5.13;;;;;;;13.94;78.55;102577.59;4974224;28;20138;-75
2023/05/17 06:20:18;;;;;;;21.70;4.35;;;;;;;14.92;75.52;102573.41;4986400;28;20590;-75
2023/05/17 06:22:43;;;;;;;19.42;4.95;;;;;;;14.33;78.46;102579.22;4986016;28;20448;-74
2023/05/17 06:25:12;;;;;;;13.00;4.00;;;;;;;13.92;75.85;102584.84;4978022;28;20041;-75
2023/05/17 06:27:38;;;;;;;16.83;3.75;;;;;;;14.06;82.01;102587.72;4977187;28;20065;-74
2023/05/17 06:30:05;;;;;;;17.23;4.25;;;;;;;14.46;78.30;102586.56;4967649;28;20480;-75
2023/05/17 06:32:31;;;;;;;15.25;3.47;;;;;;;14.45;77.77;102592.00;4957348;28;21216;-75
2023/05/17 06:34:57;;;;;;;16.80;3.75;;;;;;;14.99;71.79;102579.31;4984257;28;20050;-74
2023/05/17 06:37:23;;;;;;;15.98;3.50;;;;;;;14.97;69.85;102586.59;4962083;28;20144;-73
2023/05/17 06:39:52;;;;;;;14.82;3.85;;;;;;;14.14;71.14;102590.88;4961247;28;20130;-73
2023/05/17 06:42:18;;;;;;;20.38;3.63;;;;;;;13.77;73.78;102585.59;4967291;28;20062;-73
2023/05/17 06:44:45;;;;;;;16.88;3.72;;;;;;;13.89;73.16;102590.34;4960801;28;20198;-73
2023/05/17 06:47:10;;;;;;;16.58;3.35;;;;;;;13.23;71.28;102596.19;4961333;28;20651;-73
2023/05/17 06:49:37;;;;;;;16.52;3.50;;;;;;;13.43;73.93;102596.13;4960354;28;20035;-72
2023/05/17 06:52:04;;;;;;;13.85;3.42;;;;;;;14.23;74.02;102602.97;4965934;28;20090;-74
2023/05/17 06:54:30;;;;;;;18.48;3.63;;;;;;;14.80;72.41;102594.69;4957773;28;20994;-73
2023/05/17 06:57:04;;;;;;;12.20;3.72;;;;;;;14.78;70.39;102592.09;4966927;28;20171;-73
2023/05/17 06:59:30;;;;;;;16.20;3.80;;;;;;;14.91;68.90;102597.66;4978432;28;20027;-73
2023/05/17 07:01:58;;;;;;;16.25;3.30;;;;;;;15.14;68.52;102594.59;4965100;28;20509;-73
2023/05/17 07:04:25;;;;;;;14.75;3.38;;;;;;;14.74;67.05;102598.56;4962437;28;20045;-73
2023/05/17 07:06:51;;;;;;;17.23;3.55;;;;;;;15.26;66.32;102593.94;4964428;28;20142;-73
2023/05/17 07:09:18;;;;;;;12.10;3.40;;;;;;;15.36;66.91;102586.25;4980602;28;20046;-74
2023/05/17 07:11:44;;;;;;;23.50;4.18;;;;;;;15.38;69.10;102597.78;4973022;28;20575;-73
2023/05/17 07:14:11;;;;;;;11.02;3.13;;;;;;;15.09;65.49;102596.69;4977144;28;20043;-73
2023/05/17 07:16:36;;;;;;;15.57;3.30;;;;;;;15.67;65.95;102601.56;4971192;28;20117;-74
2023/05/17 07:19:03;;;;;;;20.23;3.78;;;;;;;14.05;70.45;102615.47;4981610;28;20052;-73
2023/05/17 07:21:28;;;;;;;15.32;3.33;;;;;;;14.64;67.79;102608.03;4953009;28;20054;-74
2023/05/17 07:23:54;;;;;;;14.68;3.58;;;;;;;14.31;66.86;102613.28;4963016;28;20042;-73
2023/05/17 07:26:20;;;;;;;16.30;3.42;;;;;;;14.03;69.54;102624.56;4971769;28;20770;-74
2023/05/17 07:28:46;;;;;;;12.40;3.10;;;;;;;13.52;72.20;102628.81;4980002;28;20158;-74
2023/05/17 07:31:12;;;;;;;13.77;3.75;;;;;;;13.26;73.29;102630.88;4969709;28;20039;-75
2023/05/17 07:33:37;;;;;;;20.13;4.30;;;;;;;14.70;71.79;102624.69;4967569;28;20027;-74
2023/05/17 07:36:06;;;;;;;19.55;3.78;;;;;;;15.02;70.74;102625.69;4983192;28;20746;-75
2023/05/17 07:38:34;;;;;;;21.38;3.97;;;;;;;14.51;71.62;102632.00;4970979;28;20134;-75
2023/05/17 07:41:01;;;;;;;19.48;3.33;;;;;;;14.47;71.86;102625.00;4970180;28;20069;-75
2023/05/17 07:43:26;;;;;;;15.68;3.20;;;;;;;14.68;74.05;102625.75;4968842;28;20441;-75
2023/05/17 07:45:52;;;;;;;13.38;3.10;;;;;;;14.81;67.47;102628.63;4964992;28;20544;-73
2023/05/17 07:48:18;;;;;;;18.08;3.70;;;;;;;15.52;65.88;102623.91;4963875;28;20897;-75
2023/05/17 07:50:44;;;;;;;14.68;3.70;;;;;;;14.48;71.61;102641.06;4970210;28;20039;-76
2023/05/17 07:53:09;;;;;;;14.55;3.08;;;;;;;14.56;65.13;102637.09;4979426;28;20035;-75
2023/05/17 07:55:36;;;;;;;13.90;3.45;;;;;;;14.84;63.97;102644.59;4952345;28;20046;-73
2023/05/17 07:58:01;;;;;;;17.83;3.00;;;;;;;14.28;70.53;102646.53;4967610;28;20089;-74
2023/05/17 08:00:27;;;;;;;12.82;3.30;;;;;;;14.06;67.57;102651.25;4967889;28;20039;-73
2023/05/17 08:02:52;;;;;;;15.73;3.35;;;;;;;15.07;65.95;102644.25;4964802;28;20047;-73
2023/05/17 08:05:18;;;;;;;13.25;3.05;;;;;;;15.24;63.17;102646.91;4964692;28;20072;-75
2023/05/17 08:07:44;;;;;;;10.90;2.95;;;;;;;14.49;66.11;102660.72;4984793;28;20031;-75
2023/05/17 08:10:10;;;;;;;10.85;3.13;;;;;;;14.27;67.71;102657.34;4974938;28;20046;-74
2023/05/17 08:12:36;;;;;;;17.70;3.45;;;;;;;14.29;70.90;102653.63;4974884;28;20039;-74
2023/05/17 08:15:02;;;;;;;15.25;3.75;;;;;;;14.80;70.96;102661.81;4974465;28;20607;-75
2023/05/17 08:17:28;;;;;;;14.55;3.15;;;;;;;15.29;66.86;102660.09;4976937;28;20192;-73
2023/05/17 08:19:54;;;;;;;16.65;3.00;;;;;;;15.43;64.46;102659.34;4969200;28;20747;-75
2023/05/17 08:22:19;;;;;;;16.70;3.50;;;;;;;14.46;64.03;102655.50;4985512;28;20050;-73
2023/05/17 08:24:45;;;;;;;13.88;2.80;;;;;;;14.94;66.72;102653.91;4967468;28;20045;-74
2023/05/17 08:27:11;;;;;;;16.80;3.13;;;;;;;14.59;65.40;102653.94;4965980;28;20074;-73
2023/05/17 08:29:36;;;;;;;19.67;3.10;;;;;;;14.02;65.78;102661.25;4967935;28;20090;-74
2023/05/17 08:32:03;;;;;;;15.57;3.65;;;;;;;14.97;66.82;102654.63;4970686;28;20041;-74
2023/05/17 08:34:28;;;;;;;13.10;3.35;;;;;;;14.61;65.42;102665.47;4987244;28;20186;-74
2023/05/17 08:36:54;;;;;;;14.35;3.40;;;;;;;14.46;68.81;102661.72;4968005;28;21115;-75
2023/05/17 08:39:20;;;;;;;13.43;3.15;;;;;;;15.15;62.89;102663.53;4964335;28;20047;-74
2023/05/17 08:41:49;;;;;;;16.15;3.05;;;;;;;15.37;63.46;102668.63;4968372;28;20035;-74
2023/05/17 08:44:15;;;;;;;13.73;3.03;;;;;;;15.61;62.20;102658.31;4976177;28;20066;-73
2023/05/17 08:46:52;;;;;;;11.73;2.80;;;;;;;14.97;63.80;102665.38;4959990;28;20130;-74
2023/05/17 08:49:24;;;;;;;9.65;3.25;;;;;;;15.54;64.58;102671.25;4961205;28;20126;-73
2023/05/17 08:51:56;;;;;;;8.35;2.58;;;;;;;14.94;66.84;102672.72;4959502;28;20031;-73
2023/05/17 08:54:21;;;;;;;15.43;3.28;;;;;;;15.59;60.41;102662.06;4966788;28;20139;-73
2023/05/17 08:56:51;;;;;;;13.30;2.22;;;;;;;14.59;62.50;102678.09;4966244;28;20138;-74
2023/05/17 08:59:18;;;;;;;15.07;3.03;;;;;;;14.28;63.39;102678.75;4964645;28;20054;-73
2023/05/17 09:01:47;;;;;;;13.15;3.17;;;;;;;14.33;64.21;102665.97;4968369;28;20070;-74
2023/05/17 09:04:12;;;;;;;20.05;3.92;;;;;;;13.84;64.03;102671.03;4970724;28;20035;-75
2023/05/17 09:06:38;;;;;;;13.98;3.08;;;;;;;14.87;64.80;102666.81;4964915;28;20034;-74
2023/05/17 09:09:08;;;;;;;19.10;3.20;;;;;;;14.35;64.50;102673.91;4985990;28;20035;-75
2023/05/17 09:11:33;;;;;;;11.68;2.63;;;;;;;14.49;61.90;102666.94;4978477;28;20156;-75
2023/05/17 09:14:03;;;;;;;12.35;3.40;;;;;;;14.19;64.18;102673.81;4960027;28;20664;-74
2023/05/17 09:16:35;;;;;;;10.57;2.78;;;;;;;14.46;64.72;102672.47;4985945;28;20142;-75
2023/05/17 09:19:03;;;;;;;11.85;2.63;;;;;;;14.56;62.52;102672.91;4965220;28;20146;-75
2023/05/17 09:21:32;;;;;;;12.43;3.03;;;;;;;14.90;64.15;102676.50;4985540;28;20046;-76
2023/05/17 09:24:00;;;;;;;11.50;2.65;;;;;;;14.96;62.75;102681.56;4979365;28;20028;-75
2023/05/17 09:26:37;;;;;;;15.93;3.05;;;;;;;14.65;64.33;102679.59;4970395;28;20062;-74
2023/05/17 09:29:07;;;;;;;16.42;3.15;;;;;;;14.81;66.00;102672.50;4981819;28;20046;-75
2023/05/17 09:31:33;;;;;;;9.63;2.88;;;;;;;14.63;62.67;102676.13;4984158;28;20528;-75
2023/05/17 09:33:59;;;;;;;18.60;3.30;;;;;;;15.27;61.03;102675.44;4969187;28;20649;-75
2023/05/17 09:36:25;;;;;;;12.23;2.80;;;;;;;15.01;63.47;102668.78;4965160;28;20031;-74
2023/05/17 09:38:53;;;;;;;12.68;3.15;;;;;;;15.01;60.14;102676.84;4968819;28;20063;-74
2023/05/17 09:41:20;;;;;;;12.13;2.35;;;;;;;14.37;62.05;102672.06;4970603;28;20031;-74
2023/05/17 09:43:47;;;;;;;10.10;2.05;;;;;;;14.29;61.33;102676.91;4965957;28;20592;-75
2023/05/17 09:46:14;;;;;;;8.25;2.50;;;;;;;14.96;59.53;102676.19;4963341;28;20195;-74
2023/05/17 09:48:39;;;;;;;10.05;2.50;;;;;;;14.57;59.97;102685.38;4981864;28;20125;-75
2023/05/17 09:51:06;;;;;;;14.10;2.70;;;;;;;14.54;59.54;102669.41;4967719;28;20832;-73
2023/05/17 09:53:39;;;;;;;6.85;2.25;;;;;;;15.01;61.32;102677.72;4960898;28;20075;-75
2023/05/17 09:56:08;;;;;;;26.67;3.45;;;;;;;14.97;61.94;102673.44;4963277;28;20043;-75
2023/05/17 09:58:36;;;;;;;10.73;2.40;;;;;;;15.88;59.32;102669.41;4974813;28;20054;-75
2023/05/17 10:01:06;;;;;;;12.15;2.88;;;;;;;15.55;58.54;102683.72;4954166;28;20149;-75
2023/05/17 10:03:36;;;;;;;9.50;2.20;;;;;;;15.46;61.77;102675.28;4953358;28;20146;-74
2023/05/17 10:06:08;;;;;;;9.90;2.35;;;;;;;14.83;58.69;102672.41;4975366;28;20897;-75
2023/05/17 10:08:37;;;;;;;;;;;;;;;14.73;62.48;102677.41;4971116;28;20093;-74
2023/05/17 10:11:12;;;;;;;6.00;2.22;;;;;;;14.64;60.04;102681.41;4976784;28;19918;-73
2023/05/17 10:13:46;;;;;;;7.43;2.33;;;;;;;14.44;57.17;102674.34;4985217;28;20149;-75
2023/05/17 10:16:12;;;;;;;7.57;2.25;;;;;;;14.35;57.89;102674.78;4964651;28;20170;-75
2023/05/17 10:18:39;;;;;;;7.78;2.45;;;;;;;15.00;57.81;102670.56;4961563;28;20961;-75
2023/05/17 10:21:07;;;;;;;9.75;2.40;;;;;;;14.90;57.13;102681.88;4978111;28;20042;-75
2023/05/17 10:23:34;;;;;;;9.45;2.70;;;;;;;15.43;60.27;102687.09;4978254;28;20136;-76
2023/05/17 10:26:01;;;;;;;10.68;3.45;;;;;;;15.13;58.11;102691.44;4971116;28;20038;-74
2023/05/17 10:28:28;;;;;;;9.45;2.50;;;;;;;14.42;57.84;102678.06;4958672;28;20716;-75
2023/05/17 10:30:55;;;;;;;10.68;2.30;;;;;;;14.47;60.30;102684.06;4964410;28;20039;-74
2023/05/17 10:33:21;;;;;;;12.27;2.60;;;;;;;15.49;56.40;102670.63;4982414;28;20042;-75
2023/05/17 10:35:48;;;;;;;11.50;2.60;;;;;;;15.05;59.64;102685.59;4969568;28;20512;-73
2023/05/17 10:38:16;;;;;;;5.93;2.17;;;;;;;14.64;59.05;102681.41;4968786;28;20051;-74
2023/05/17 10:40:44;;;;;;;15.30;2.97;;;;;;;15.43;59.11;102680.84;4971590;28;20636;-75
2023/05/17 10:43:12;;;;;;;13.73;2.60;;;;;;;14.34;56.99;102675.75;4976889;28;20033;-74
2023/05/17 10:45:39;;;;;;;8.90;2.70;;;;;;;15.52;57.31;102675.84;4965960;28;20628;-73
2023/05/17 10:48:07;;;;;;;7.38;2.22;;;;;;;14.73;59.26;102683.63;4983814;28;20050;-73
2023/05/17 10:50:41;;;;;;;12.38;2.45;;;;;;;14.98;57.74;102680.53;4967486;28;20039;-74
2023/05/17 10:53:09;;;;;;;9.38;2.72;;;;;;;14.81;57.70;102679.66;4970587;28;20050;-73
2023/05/17 10:55:42;;;;;;;15.75;3.20;;;;;;;14.62;56.75;102669.03;4963435;28;20121;-73
2023/05/17 10:58:19;;;;;;;14.95;2.90;;;;;;;14.47;58.59;102673.31;4972715;28;20177;-73
2023/05/17 11:00:49;;;;;;;12.27;3.38;;;;;;;15.10;57.57;102672.78;4968905;28;20043;-73
2023/05/17 11:03:20;;;;;;;11.65;2.75;;;;;;;15.34;59.11;102665.22;4965292;28;20159;-75
2023/05/17 11:06:12;;;;;;;11.82;2.55;;;;;;;15.19;57.96;102667.78;4989679;28;20067;-74
2023/05/17 11:09:04;;;;;;;16.73;2.83;;;;;;;15.17;59.75;102668.84;4979645;28;20428;-73
2023/05/17 11:11:30;;;;;;;17.15;3.95;;;;;;;14.35;59.10;102669.41;4957567;28;20490;-73
2023/05/17 11:13:57;;;;;;;18.58;3.33;;;;;;;14.99;59.09;102673.34;4967272;28;20520;-73
2023/05/17 11:16:33;;;;;;;9.88;3.55;;;;;;;14.76;57.45;102658.44;4962655;28;20046;-73
2023/05/17 11:19:07;;;;;;;15.25;3.95;;;;;;;14.88;59.03;102663.16;4968058;28;20058;-71